createdAt,value
2018-03-25T00:01:09.585Z,95.00
2018-03-25T00:03:37.048Z,95.00
2018-03-25T00:06:04.524Z,94.90
2018-03-25T00:08:32.773Z,95.00
2018-03-25T00:11:00.257Z,95.00
2018-03-25T00:13:28.489Z,95.00
2018-03-25T00:15:56.002Z,95.00
2018-03-25T00:18:24.250Z,95.10
2018-03-25T00:20:51.734Z,95.00
2018-03-25T00:23:19.963Z,95.20
2018-03-25T00:25:47.449Z,95.20
2018-03-25T00:28:14.914Z,95.10
2018-03-25T00:30:43.147Z,95.40
2018-03-25T00:33:10.646Z,95.10
2018-03-25T00:35:38.147Z,95.20
2018-03-25T00:38:05.641Z,95.20
2018-03-25T00:40:33.113Z,95.30
2018-03-25T00:43:00.616Z,95.20
2018-03-25T00:45:28.122Z,95.40
2018-03-25T00:47:55.601Z,95.40
2018-03-25T00:50:23.071Z,95.60
2018-03-25T00:52:51.340Z,96.00
2018-03-25T00:55:19.585Z,96.10
2018-03-25T00:57:47.065Z,96.10
2018-03-25T01:00:14.538Z,96.20
2018-03-25T01:02:42.773Z,96.50
2018-03-25T01:05:10.242Z,96.40
2018-03-25T01:07:37.765Z,96.50
2018-03-25T01:10:05.973Z,96.60
2018-03-25T01:12:33.549Z,96.60
2018-03-25T01:15:01.009Z,96.70
2018-03-25T01:17:28.478Z,97.40
2018-03-25T01:19:56.729Z,97.20
2018-03-25T01:22:24.210Z,97.20
2018-03-25T01:24:52.457Z,97.30
2018-03-25T01:27:19.925Z,97.30
2018-03-25T01:29:47.408Z,97.20
2018-03-25T01:32:15.637Z,97.10
2018-03-25T01:34:43.132Z,97.10
2018-03-25T01:37:10.593Z,97.10
2018-03-25T01:39:38.841Z,97.30
2018-03-25T01:42:06.301Z,97.30
2018-03-25T01:44:33.777Z,97.50
2018-03-25T01:47:01.247Z,97.60
2018-03-25T01:49:29.500Z,97.90
2018-03-25T01:51:57.738Z,97.90
2018-03-25T01:54:25.986Z,98.00
2018-03-25T01:56:54.212Z,98.20
2018-03-25T01:59:21.683Z,98.20
2018-03-25T02:01:49.161Z,98.30
2018-03-25T02:04:16.624Z,98.40
2018-03-25T02:06:44.865Z,98.40
2018-03-25T02:09:12.329Z,98.30
2018-03-25T02:11:39.816Z,98.30
2018-03-25T02:14:08.078Z,98.30
2018-03-25T02:16:35.557Z,98.30
2018-03-25T02:19:03.797Z,98.10
2018-03-25T02:21:31.269Z,98.10
2018-03-25T02:23:58.735Z,98.10
2018-03-25T02:26:27.013Z,98.40
2018-03-25T02:28:54.482Z,98.20
2018-03-25T02:31:22.724Z,98.30
2018-03-25T02:33:50.198Z,98.20
2018-03-25T02:36:17.679Z,98.50
2018-03-25T02:38:45.937Z,98.70
2018-03-25T02:41:13.394Z,98.70
2018-03-25T02:43:41.671Z,99.10
2018-03-25T02:46:09.134Z,98.80
2018-03-25T02:48:37.387Z,99.00
2018-03-25T02:51:04.860Z,98.90
2018-03-25T02:53:33.105Z,99.20
2018-03-25T02:56:00.570Z,99.30
2018-03-25T02:58:28.061Z,99.20
2018-03-25T03:00:56.289Z,99.60
2018-03-25T03:03:23.769Z,99.60
2018-03-25T03:05:51.225Z,99.70
2018-03-25T03:08:18.701Z,99.80
2018-03-25T03:10:46.169Z,99.70
2018-03-25T03:13:14.413Z,99.90
2018-03-25T03:15:41.881Z,99.80
2018-03-25T03:18:09.371Z,99.90
2018-03-25T03:20:37.611Z,99.80
2018-03-25T03:23:05.132Z,99.80
2018-03-25T03:25:32.626Z,99.90
2018-03-25T03:28:00.090Z,99.90
2018-03-25T03:30:27.582Z,99.90
2018-03-25T03:32:55.884Z,99.90
2018-03-25T03:35:23.397Z,99.90
2018-03-25T03:37:51.634Z,99.90
2018-03-25T03:40:19.115Z,99.90
2018-03-25T03:42:46.580Z,99.90
2018-03-25T03:45:14.058Z,99.90
2018-03-25T03:47:42.285Z,99.90
2018-03-25T03:50:09.784Z,99.90
2018-03-25T03:52:37.290Z,99.90
2018-03-25T03:55:04.814Z,99.90
2018-03-25T03:57:33.048Z,99.90
2018-03-25T04:00:00.523Z,99.90
2018-03-25T04:02:27.985Z,99.90
2018-03-25T04:04:55.450Z,99.90
2018-03-25T04:07:22.936Z,99.90
2018-03-25T04:09:51.182Z,99.90
2018-03-25T04:12:18.661Z,99.90
2018-03-25T04:14:46.885Z,99.90
2018-03-25T04:17:14.375Z,99.90
2018-03-25T04:19:41.934Z,99.90
2018-03-25T04:22:10.214Z,99.90
2018-03-25T04:24:37.681Z,99.90
2018-03-25T04:27:05.932Z,99.90
2018-03-25T04:29:33.405Z,99.80
2018-03-25T04:32:02.396Z,99.90
2018-03-25T04:34:29.859Z,99.90
2018-03-25T04:36:57.338Z,99.90
2018-03-25T04:39:25.581Z,99.90
2018-03-25T04:41:53.074Z,99.90
2018-03-25T04:44:21.297Z,99.90
2018-03-25T04:46:48.799Z,99.90
2018-03-25T04:49:17.029Z,99.90
2018-03-25T04:51:44.497Z,99.90
2018-03-25T04:54:11.977Z,99.90
2018-03-25T04:56:39.446Z,99.90
2018-03-25T04:59:07.690Z,99.90
2018-03-25T05:01:35.157Z,99.90
2018-03-25T05:04:02.740Z,99.90
2018-03-25T05:06:30.977Z,99.90
2018-03-25T05:08:58.463Z,99.90
2018-03-25T05:11:26.692Z,99.90
2018-03-25T05:13:54.169Z,99.90
2018-03-25T05:16:21.670Z,99.90
2018-03-25T05:18:49.910Z,99.90
2018-03-25T05:21:17.398Z,99.90
2018-03-25T05:23:45.647Z,99.90
2018-03-25T05:26:13.110Z,99.90
2018-03-25T05:28:40.585Z,99.90
2018-03-25T05:31:08.056Z,99.90
2018-03-25T05:33:36.285Z,99.90
2018-03-25T05:36:03.773Z,99.90
2018-03-25T05:38:31.233Z,99.90
2018-03-25T05:40:58.709Z,99.90
2018-03-25T05:43:26.969Z,99.90
2018-03-25T05:45:55.225Z,99.90
2018-03-25T05:48:22.690Z,99.90
2018-03-25T05:50:50.173Z,99.90
2018-03-25T05:53:18.437Z,99.90
2018-03-25T05:55:45.925Z,99.90
2018-03-25T05:58:13.400Z,99.90
2018-03-25T06:00:40.909Z,99.90
2018-03-25T06:03:08.375Z,99.90
2018-03-25T06:05:36.625Z,99.90
2018-03-25T06:08:04.101Z,99.90
2018-03-25T06:10:31.589Z,99.90
2018-03-25T06:12:59.055Z,99.90
2018-03-25T06:15:26.534Z,99.90
2018-03-25T06:17:54.013Z,99.90
2018-03-25T06:20:21.485Z,99.90
2018-03-25T06:22:50.465Z,99.90
2018-03-25T06:25:17.940Z,99.90
2018-03-25T06:27:45.434Z,99.90
2018-03-25T06:30:12.961Z,99.90
2018-03-25T06:32:41.205Z,99.90
2018-03-25T06:35:08.678Z,99.90
2018-03-25T06:37:36.153Z,99.90
2018-03-25T06:40:03.617Z,99.90
2018-03-25T06:42:31.865Z,99.90
2018-03-25T06:44:59.344Z,99.90
2018-03-25T06:47:26.819Z,99.90
2018-03-25T06:49:55.050Z,99.90
2018-03-25T06:52:22.543Z,99.90
2018-03-25T06:54:50.778Z,99.70
2018-03-25T06:57:18.265Z,99.70
2018-03-25T06:59:45.730Z,99.60
2018-03-25T07:02:13.189Z,99.60
2018-03-25T07:04:41.440Z,99.50
2018-03-25T07:07:08.910Z,99.50
2018-03-25T07:09:37.904Z,99.30
2018-03-25T07:12:05.372Z,99.30
2018-03-25T07:14:32.845Z,99.20
2018-03-25T07:17:01.085Z,98.80
2018-03-25T07:19:28.570Z,98.70
2018-03-25T07:21:56.874Z,98.70
2018-03-25T07:24:25.121Z,98.70
2018-03-25T07:26:53.364Z,98.60
2018-03-25T07:29:20.856Z,98.50
2018-03-25T07:31:48.393Z,98.10
2018-03-25T07:34:15.876Z,97.90
2018-03-25T07:36:44.191Z,98.00
2018-03-25T07:39:11.670Z,98.00
2018-03-25T07:41:39.140Z,97.40
2018-03-25T07:44:06.597Z,97.40
2018-03-25T07:46:34.078Z,97.40
2018-03-25T07:49:01.540Z,97.50
2018-03-25T07:51:29.017Z,97.20
2018-03-25T07:53:57.245Z,96.70
2018-03-25T07:56:24.739Z,96.70
2018-03-25T07:58:53.989Z,96.50
2018-03-25T08:01:21.490Z,96.50
2018-03-25T08:03:49.729Z,96.40
2018-03-25T08:06:17.206Z,96.50
2018-03-25T08:08:44.677Z,96.20
2018-03-25T08:11:12.154Z,95.90
2018-03-25T08:13:40.387Z,95.60
2018-03-25T08:16:07.898Z,95.60
2018-03-25T08:18:35.346Z,95.20
2018-03-25T08:21:03.607Z,94.70
2018-03-25T08:23:31.072Z,94.70
2018-03-25T08:25:58.566Z,94.40
2018-03-25T08:28:26.067Z,94.50
2018-03-25T08:30:53.549Z,94.10
2018-03-25T08:33:22.805Z,93.50
2018-03-25T08:35:50.278Z,93.50
2018-03-25T08:38:17.754Z,93.20
2018-03-25T08:40:45.213Z,92.90
2018-03-25T08:43:12.699Z,92.60
2018-03-25T08:45:40.197Z,92.40
2018-03-25T08:48:07.692Z,92.10
2018-03-25T08:50:35.153Z,91.70
2018-03-25T08:53:03.407Z,91.30
2018-03-25T08:55:30.894Z,91.30
2018-03-25T08:57:59.432Z,91.10
2018-03-25T09:00:26.912Z,91.10
2018-03-25T09:02:54.415Z,91.00
2018-03-25T09:05:21.889Z,90.60
2018-03-25T09:07:49.410Z,90.60
2018-03-25T09:10:17.718Z,90.20
2018-03-25T09:12:45.242Z,90.20
2018-03-25T09:15:12.671Z,90.00
2018-03-25T09:20:19.126Z,88.20
2018-03-25T09:22:46.597Z,87.90
2018-03-25T09:25:14.077Z,86.70
2018-03-25T09:27:41.545Z,85.50
2018-03-25T09:30:09.029Z,84.50
2018-03-25T09:32:37.272Z,82.10
2018-03-25T09:35:04.767Z,82.00
2018-03-25T09:37:33.013Z,81.20
2018-03-25T09:40:01.270Z,80.70
2018-03-25T09:42:29.555Z,80.00
2018-03-25T09:44:57.058Z,80.50
2018-03-25T09:47:25.289Z,80.50
2018-03-25T09:49:52.792Z,80.40
2018-03-25T09:52:21.041Z,76.80
2018-03-25T09:54:48.529Z,76.70
2018-03-25T09:57:16.022Z,75.40
2018-03-25T09:59:43.561Z,75.20
2018-03-25T10:02:11.993Z,74.20
2018-03-25T10:04:39.490Z,74.30
2018-03-25T10:07:07.737Z,76.60
2018-03-25T10:09:36.009Z,75.90
2018-03-25T10:12:03.489Z,75.80
2018-03-25T10:14:31.722Z,73.90
2018-03-25T10:17:00.206Z,73.90
2018-03-25T10:19:27.682Z,73.00
2018-03-25T10:21:55.142Z,72.40
2018-03-25T10:24:22.632Z,72.70
2018-03-25T10:26:50.117Z,70.70
2018-03-25T10:29:17.617Z,70.00
2018-03-25T10:31:45.853Z,69.70
2018-03-25T10:34:13.334Z,69.60
2018-03-25T10:36:40.807Z,71.10
2018-03-25T10:39:08.286Z,72.10
2018-03-25T10:41:36.543Z,70.60
2018-03-25T10:44:04.009Z,70.60
2018-03-25T10:46:32.275Z,69.20
2018-03-25T10:48:59.749Z,69.10
2018-03-25T10:51:27.996Z,67.20
2018-03-25T10:53:55.485Z,67.10
2018-03-25T10:56:23.780Z,63.40
2018-03-25T10:58:51.982Z,63.30
2018-03-25T11:01:19.551Z,64.30
2018-03-25T11:03:47.031Z,63.60
2018-03-25T11:06:15.604Z,63.60
2018-03-25T11:08:43.133Z,63.90
2018-03-25T11:11:10.601Z,64.00
2018-03-25T11:13:38.093Z,60.50
2018-03-25T11:16:05.570Z,62.20
2018-03-25T11:18:33.816Z,64.50
2018-03-25T11:21:01.320Z,64.30
2018-03-25T11:23:29.569Z,63.80
2018-03-25T11:25:57.800Z,63.20
2018-03-25T11:28:25.289Z,63.10
2018-03-25T11:30:52.769Z,62.90
2018-03-25T11:33:20.488Z,61.50
2018-03-25T11:35:47.969Z,62.00
2018-03-25T11:38:15.450Z,62.20
2018-03-25T11:40:43.735Z,59.50
2018-03-25T11:43:11.978Z,58.90
2018-03-25T11:45:39.478Z,58.80
2018-03-25T11:48:07.711Z,57.90
2018-03-25T11:50:35.192Z,57.80
2018-03-25T11:53:03.445Z,57.40
2018-03-25T11:55:31.110Z,57.30
2018-03-25T11:57:58.582Z,57.00
2018-03-25T12:00:26.092Z,56.30
2018-03-25T12:02:53.561Z,57.30
2018-03-25T12:05:21.505Z,57.30
2018-03-25T12:07:48.993Z,57.10
2018-03-25T12:10:16.465Z,57.50
2018-03-25T12:12:43.953Z,57.20
2018-03-25T12:15:13.101Z,55.10
2018-03-25T12:17:40.582Z,55.00
2018-03-25T12:20:08.057Z,52.70
2018-03-25T12:22:36.409Z,52.40
2018-03-25T12:25:03.881Z,51.80
2018-03-25T12:27:31.366Z,51.70
2018-03-25T12:29:59.044Z,50.80
2018-03-25T12:32:26.606Z,50.70
2018-03-25T12:34:54.086Z,51.60
2018-03-25T12:37:21.568Z,51.90
2018-03-25T12:39:49.037Z,52.20
2018-03-25T12:42:16.514Z,51.50
2018-03-25T12:44:44.765Z,51.70
2018-03-25T12:47:12.269Z,51.70
2018-03-25T12:49:39.762Z,50.80
2018-03-25T12:52:07.237Z,49.10
2018-03-25T12:54:34.715Z,48.70
2018-03-25T12:57:02.194Z,47.90
2018-03-25T12:59:30.429Z,48.70
2018-03-25T13:01:57.953Z,48.40
2018-03-25T13:04:25.422Z,46.70
2018-03-25T13:06:52.924Z,46.90
2018-03-25T15:25:51.551Z,61.70
2018-03-25T15:28:19.000Z,61.70
2018-03-25T15:30:46.479Z,61.00
2018-03-25T15:33:14.833Z,61.70
2018-03-25T15:35:42.326Z,61.50
2018-03-25T15:38:10.618Z,62.40
2018-03-25T15:40:38.831Z,62.70
2018-03-25T15:43:06.328Z,62.60
2018-03-25T15:45:33.907Z,63.40
2018-03-25T15:48:01.355Z,63.00
2018-03-25T15:50:29.665Z,63.60
2018-03-25T15:52:57.181Z,63.50
2018-03-25T15:55:26.453Z,64.70
2018-03-25T15:57:53.947Z,64.50
2018-03-25T16:00:22.214Z,65.50
2018-03-25T16:02:50.449Z,66.30
2018-03-25T16:05:17.954Z,66.30
2018-03-25T16:07:46.194Z,67.40
2018-03-25T16:10:13.709Z,67.30
2018-03-25T16:12:41.223Z,68.10
2018-03-25T16:15:08.705Z,68.60
2018-03-25T16:17:36.972Z,69.50
2018-03-25T16:20:06.281Z,69.50
2018-03-25T16:22:34.598Z,69.70
2018-03-25T16:25:02.087Z,69.70
2018-03-25T16:27:29.599Z,70.00
2018-03-25T16:29:57.050Z,70.10
2018-03-25T16:32:25.284Z,70.50
2018-03-25T16:34:52.771Z,70.60
2018-03-25T16:37:21.029Z,71.20
2018-03-25T16:39:48.534Z,71.20
2018-03-25T16:42:16.025Z,71.30
2018-03-25T16:44:43.568Z,71.40
2018-03-25T16:47:11.090Z,71.50
2018-03-25T16:49:39.346Z,71.90
2018-03-25T16:52:06.858Z,71.90
2018-03-25T16:54:34.330Z,72.20
2018-03-25T16:57:01.834Z,72.30
2018-03-25T16:59:30.076Z,72.90
2018-03-25T17:01:57.562Z,72.70
2018-03-25T17:04:25.077Z,73.30
2018-03-25T17:06:52.567Z,74.40
2018-03-25T17:09:20.090Z,74.00
2018-03-25T17:11:47.619Z,74.50
2018-03-25T17:14:15.861Z,75.40
2018-03-25T17:16:43.373Z,75.30
2018-03-25T17:19:10.845Z,75.50
2018-03-25T17:21:38.317Z,75.80
2018-03-25T17:24:05.802Z,76.00
2018-03-25T17:26:33.425Z,76.20
2018-03-25T17:29:00.932Z,76.50
2018-03-25T17:31:29.480Z,77.10
2018-03-25T17:33:56.990Z,77.10
2018-03-25T17:36:25.275Z,77.90
2018-03-25T17:38:53.558Z,77.90
2018-03-25T17:41:21.029Z,77.90
2018-03-25T17:43:48.545Z,77.80
2018-03-25T17:46:16.797Z,78.70
2018-03-25T17:48:44.287Z,78.70
2018-03-25T17:51:12.537Z,78.50
2018-03-25T17:53:40.005Z,78.50
2018-03-25T17:56:07.505Z,78.50
2018-03-25T17:58:35.004Z,78.90
2018-03-25T18:01:02.481Z,79.50
2018-03-25T18:03:29.954Z,79.50
2018-03-25T18:05:58.383Z,80.20
2018-03-25T18:08:25.859Z,80.20
2018-03-25T18:10:53.354Z,80.30
2018-03-25T18:13:21.886Z,80.80
2018-03-25T18:15:49.532Z,80.60
2018-03-25T18:18:17.076Z,80.70
2018-03-25T18:20:56.290Z,80.30
2018-03-25T18:23:12.122Z,80.70
2018-03-25T18:25:39.621Z,81.10
2018-03-25T18:28:07.105Z,81.10
2018-03-25T18:30:35.342Z,81.80
2018-03-25T18:33:02.834Z,81.70
2018-03-25T18:35:31.071Z,82.20
2018-03-25T18:37:58.558Z,82.20
2018-03-25T18:40:26.790Z,82.20
2018-03-25T18:42:54.289Z,82.20
2018-03-25T18:45:22.523Z,82.20
2018-03-25T18:47:50.014Z,82.20
2018-03-25T18:50:17.493Z,82.50
2018-03-25T18:52:45.741Z,82.50
2018-03-25T18:55:13.567Z,82.40
2018-03-25T18:57:41.046Z,82.50
2018-03-25T19:00:08.529Z,82.10
2018-03-25T19:02:36.001Z,82.10
2018-03-25T19:05:04.276Z,82.00
2018-03-25T19:07:32.523Z,82.10
2018-03-25T19:10:00.000Z,82.00
2018-03-25T19:12:27.499Z,82.10
2018-03-25T19:14:54.999Z,82.70
2018-03-25T19:17:22.489Z,82.60
2018-03-25T19:19:50.737Z,82.80
2018-03-25T19:22:18.244Z,82.80
2018-03-25T19:24:45.761Z,82.90
2018-03-25T19:27:13.255Z,83.10
2018-03-25T19:29:41.583Z,83.40
2018-03-25T19:32:09.118Z,83.40
2018-03-25T19:34:38.282Z,83.70
2018-03-25T19:37:06.529Z,83.90
2018-03-25T19:39:34.011Z,83.90
2018-03-25T19:42:02.329Z,84.20
2018-03-25T19:44:30.414Z,84.20
2018-03-25T19:46:57.911Z,84.30
2018-03-25T19:49:26.208Z,84.10
2018-03-25T19:51:53.726Z,84.00
2018-03-25T19:54:21.198Z,84.50
2018-03-25T19:56:51.125Z,84.20
2018-03-25T19:59:19.387Z,84.50
2018-03-25T20:01:46.858Z,84.50
2018-03-25T20:04:16.127Z,85.20
2018-03-25T20:06:43.620Z,85.00
2018-03-25T20:09:11.877Z,84.80
2018-03-25T20:11:39.354Z,84.80
2018-03-25T20:14:07.610Z,84.80
2018-03-25T20:16:35.086Z,84.80
2018-03-25T20:19:03.367Z,85.20
2018-03-25T20:21:31.682Z,85.80
2018-03-25T20:23:59.184Z,85.70
2018-03-25T20:26:26.654Z,85.80
2018-03-25T20:28:55.041Z,85.30
2018-03-25T20:31:23.278Z,85.70
2018-03-25T20:33:50.765Z,85.60
2018-03-25T20:36:19.021Z,86.00
2018-03-25T20:38:46.494Z,86.00
2018-03-25T20:41:13.985Z,86.10
2018-03-25T20:43:41.482Z,86.20
2018-03-25T20:46:08.974Z,86.20
2018-03-25T20:48:36.442Z,85.70
2018-03-25T20:51:04.697Z,85.50
2018-03-25T20:53:32.933Z,85.40
2018-03-25T20:56:00.412Z,85.40
2018-03-25T20:58:27.926Z,85.30
2018-03-25T21:00:56.240Z,85.90
2018-03-25T21:03:24.447Z,85.90
2018-03-25T21:05:52.018Z,85.30
2018-03-25T21:08:20.269Z,86.10
2018-03-25T21:10:47.907Z,85.20
2018-03-25T21:13:17.422Z,84.80
2018-03-25T21:15:45.723Z,84.70
2018-03-25T21:18:13.221Z,84.70
2018-03-25T21:20:40.706Z,84.40
2018-03-25T21:23:08.210Z,84.40
2018-03-25T21:25:35.745Z,84.40
2018-03-25T21:28:03.213Z,84.30
2018-03-25T21:30:30.703Z,84.40
2018-03-25T21:32:58.938Z,84.50
2018-03-25T21:35:26.522Z,84.40
2018-03-25T21:37:53.998Z,84.60
2018-03-25T21:40:22.249Z,84.10
2018-03-25T21:42:49.818Z,84.00
2018-03-25T21:45:17.259Z,84.10
2018-03-25T21:47:44.737Z,84.70
2018-03-25T21:50:12.207Z,84.40
2018-03-25T21:52:40.508Z,84.70
2018-03-25T21:55:07.989Z,84.60
2018-03-25T21:57:35.481Z,84.90
2018-03-25T22:00:02.955Z,85.30
2018-03-25T22:02:31.214Z,85.40
2018-03-25T22:04:58.685Z,85.30
2018-03-25T22:07:26.937Z,85.10
2018-03-25T22:09:54.410Z,85.00
2018-03-25T22:12:21.893Z,85.30
2018-03-25T22:14:50.133Z,86.10
2018-03-25T22:17:17.610Z,86.00
2018-03-25T22:19:45.862Z,86.00
2018-03-25T22:22:13.353Z,86.00
2018-03-25T22:24:41.614Z,86.20
2018-03-25T22:27:09.085Z,86.20
2018-03-25T22:29:37.333Z,86.60
2018-03-25T22:32:04.802Z,86.60
2018-03-25T22:34:32.345Z,86.60
2018-03-25T22:36:59.825Z,86.80
2018-03-25T22:39:28.068Z,87.20
2018-03-25T22:41:55.554Z,87.10
2018-03-25T22:44:23.037Z,87.40
2018-03-25T22:46:50.521Z,87.50
2018-03-25T22:49:18.077Z,87.60
2018-03-25T22:51:45.558Z,87.90
2018-03-25T22:54:13.038Z,88.00
2018-03-25T22:56:40.526Z,88.00
2018-03-25T22:59:08.770Z,88.80
2018-03-25T23:01:36.261Z,88.70
2018-03-25T23:04:04.513Z,89.50
2018-03-25T23:06:31.982Z,89.30
2018-03-25T23:09:00.229Z,90.10
2018-03-25T23:11:27.697Z,89.90
2018-03-25T23:13:55.197Z,90.00
2018-03-25T23:16:22.668Z,90.20
2018-03-25T23:18:50.149Z,90.30
2018-03-25T23:21:17.623Z,90.60
2018-03-25T23:23:45.105Z,90.70
2018-03-25T23:26:12.602Z,90.80
2018-03-25T23:28:40.098Z,91.20
2018-03-25T23:31:07.574Z,91.10
2018-03-25T23:33:35.043Z,91.30
2018-03-25T23:36:03.291Z,91.60
2018-03-25T23:38:30.773Z,91.60
2018-03-25T23:40:59.024Z,93.00
2018-03-25T23:43:26.497Z,92.70
2018-03-25T23:45:53.980Z,92.80
2018-03-25T23:48:22.204Z,93.20
2018-03-25T23:50:49.693Z,93.30
2018-03-25T23:53:17.164Z,93.70
2018-03-25T23:55:45.436Z,93.60
2018-03-25T23:58:13.686Z,94.00
